< Typhoon 199804 1998 Season Typhoon 199806 >
Typhoon 199805 (STELLA)
General InformationTrack Information on Google MapsDetailed Wind InformationList of All Images || NewsDisaster Info.ResourceGoogle EarthGE AnimationAtom FeedGeoJSON
Detalied Best Track (Time Zone = UTC)
Year Month Day Hour Lat. Long. Pressure (hPa) Wind (kt) Class Image Chart
1998 9 12 00 17.5 145.7 1002 0 2 Image Chart
1998 9 12 06 18.7 144.6 1002 0 2 Image Chart
1998 9 12 12 19.2 143.7 1002 0 2 Image Chart
1998 9 12 18 19.8 143.3 1002 0 2 Image Chart
1998 9 13 00 20.8 142.5 1002 0 2 Image Chart
1998 9 13 06 21.7 141.4 1000 0 2 Image Chart
1998 9 13 12 22.2 141.2 998 0 2 Image Chart
1998 9 13 18 22.7 141.1 994 35 3 Image Chart
1998 9 14 00 23.9 140.2 992 40 3 Image Chart
1998 9 14 06 25.4 139.2 990 45 3 Image Chart
1998 9 14 12 26.3 138.4 985 50 4 Image Chart
1998 9 14 18 27.2 137.9 980 55 4 Image Chart
1998 9 15 00 28.2 137.4 975 60 4 Image Chart
1998 9 15 06 29.8 136.7 975 60 4 Image Chart
1998 9 15 09 30.8 136.6 975 60 4 Image Chart
1998 9 15 12 31.6 136.9 975 60 4 Image Chart
1998 9 15 15 32.7 137.4 975 60 4 Image Chart
1998 9 15 18 34.0 137.9 970 60 4 Image Chart
1998 9 15 19 34.4 138.1 965 60 4 Image Chart
1998 9 15 21 35.0 138.5 965 60 4 Image Chart
1998 9 16 00 36.0 140.0 970 55 4 Image Chart
1998 9 16 03 38.2 140.8 970 55 4 Image Chart
1998 9 16 06 40.5 141.6 970 55 4 Image Chart
1998 9 16 09 42.1 143.1 975 50 4 Image Chart
1998 9 16 11 42.9 144.2 975 50 4 Image Chart
1998 9 16 12 43.4 144.6 976 0 6 Image Chart
1998 9 16 18 45.3 147.2 980 0 6 Image Chart
1998 9 17 00 46.7 151.6 984 0 6 Image Chart
1998 9 17 06 48.5 157.0 984 0 6 Image Chart
1998 9 17 12 49.5 162.0 984 0 6 Image Chart
1998 9 17 18 49.6 168.8 980 0 6 Image Chart
1998 9 18 00 49.6 174.6 978 0 6 Image Chart
1998 9 18 06 50.1 180.3 976 0 6 Image Chart
Japan Meteorological Agency Best Track Data | Correction Date : 1999-01-11
< Typhoon 199804 1998 Season Typhoon 199806 >

Help